createdAt,value
2023-02-12T00:00:03.946Z,5.90
2023-02-12T00:01:03.673Z,5.96
2023-02-12T00:02:02.692Z,5.81
2023-02-12T00:03:02.679Z,5.84
2023-02-12T00:04:02.634Z,5.80
2023-02-12T00:05:02.622Z,5.80
2023-02-12T00:06:02.606Z,5.75
2023-02-12T00:07:02.611Z,5.78
2023-02-12T00:08:02.591Z,5.77
2023-02-12T00:09:03.482Z,5.90
2023-02-12T00:10:02.562Z,5.78
2023-02-12T00:11:02.600Z,5.74
2023-02-12T00:12:02.540Z,5.65
2023-02-12T00:13:02.510Z,5.60
2023-02-12T00:14:02.506Z,5.66
2023-02-12T00:15:02.481Z,5.66
2023-02-12T00:16:02.545Z,5.58
2023-02-12T00:17:02.469Z,5.56
2023-02-12T00:18:02.449Z,5.73
2023-02-12T00:19:02.482Z,5.56
2023-02-12T00:20:02.430Z,5.59
2023-02-12T00:21:02.880Z,5.51
2023-02-12T00:22:02.434Z,5.47
2023-02-12T00:23:02.409Z,5.35
2023-02-12T00:24:02.394Z,5.41
2023-02-12T00:25:02.384Z,5.35
2023-02-12T00:26:02.394Z,5.45
2023-02-12T00:27:02.385Z,5.37
2023-02-12T00:28:02.400Z,5.37
2023-02-12T00:29:02.386Z,5.37
2023-02-12T00:30:02.317Z,5.32
2023-02-12T00:31:02.450Z,5.49
2023-02-12T00:32:02.423Z,5.55
2023-02-12T00:33:02.279Z,5.47
2023-02-12T00:34:02.306Z,5.42
2023-02-12T00:35:02.289Z,5.47
2023-02-12T00:36:02.290Z,5.38
2023-02-12T00:37:03.342Z,5.35
2023-02-12T00:38:02.299Z,5.32
2023-02-12T00:39:02.266Z,5.37
2023-02-12T00:40:02.246Z,5.32
2023-02-12T00:41:02.260Z,5.41
2023-02-12T00:42:02.192Z,5.23
2023-02-12T00:43:02.297Z,5.26
2023-02-12T00:44:02.246Z,5.17
2023-02-12T00:45:02.239Z,5.38
2023-02-12T00:46:02.187Z,5.38
2023-02-12T00:47:02.141Z,5.42
2023-02-12T00:48:02.168Z,5.48
2023-02-12T00:49:02.199Z,5.48
2023-02-12T00:50:02.122Z,5.55
2023-02-12T00:51:02.114Z,5.45
2023-02-12T00:52:02.115Z,5.45
2023-02-12T00:53:02.399Z,5.32
2023-02-12T00:54:02.140Z,5.27
2023-02-12T00:55:02.061Z,5.22
2023-02-12T00:56:02.058Z,5.42
2023-02-12T00:57:02.050Z,5.41
2023-02-12T00:58:02.068Z,5.29
2023-02-12T00:59:02.039Z,5.24
2023-02-12T01:00:02.017Z,5.23
2023-02-12T01:01:02.036Z,5.42
2023-02-12T01:02:02.010Z,5.41
2023-02-12T01:03:02.038Z,5.37
2023-02-12T01:04:02.012Z,5.27
2023-02-12T01:05:02.049Z,5.42
2023-02-12T01:06:01.965Z,5.29
2023-02-12T01:07:01.932Z,5.17
2023-02-12T01:08:01.952Z,5.26
2023-02-12T01:09:01.967Z,5.30
2023-02-12T01:10:01.947Z,5.27
2023-02-12T01:11:01.931Z,5.32
2023-02-12T01:12:01.885Z,5.24
2023-02-12T01:13:01.942Z,5.32
2023-02-12T01:14:01.915Z,5.38
2023-02-12T01:15:01.914Z,5.22
2023-02-12T01:16:01.881Z,5.35
2023-02-12T01:17:01.940Z,5.33
2023-02-12T01:18:01.866Z,5.37
2023-02-12T01:19:01.833Z,5.30
2023-02-12T01:20:01.843Z,5.35
2023-02-12T01:21:01.796Z,5.23
2023-02-12T01:22:01.805Z,5.26
2023-02-12T01:23:01.801Z,5.22
2023-02-12T01:24:02.779Z,5.29
2023-02-12T01:25:01.782Z,5.29
2023-02-12T01:26:01.772Z,5.26
2023-02-12T01:27:01.734Z,5.24
2023-02-12T01:28:01.771Z,5.23
2023-02-12T01:29:01.858Z,5.29
2023-02-12T01:30:01.757Z,5.30
2023-02-12T01:31:01.807Z,5.32
2023-02-12T01:32:02.005Z,5.24
2023-02-12T01:33:01.680Z,5.33
2023-02-12T01:34:01.685Z,5.37
2023-02-12T01:35:01.683Z,5.29
2023-02-12T01:36:01.661Z,5.27
2023-02-12T01:37:01.650Z,5.32
2023-02-12T01:38:01.653Z,5.23
2023-02-12T01:39:01.608Z,5.33
2023-02-12T01:40:01.602Z,5.35
2023-02-12T01:41:01.631Z,5.30
2023-02-12T01:42:01.590Z,5.27
2023-02-12T01:43:01.585Z,5.29
2023-02-12T01:44:01.590Z,5.33
2023-02-12T01:45:01.524Z,5.32
2023-02-12T01:46:01.564Z,5.32
2023-02-12T01:47:01.572Z,5.27
2023-02-12T01:48:01.522Z,5.27
2023-02-12T01:49:01.495Z,5.30
2023-02-12T01:50:01.477Z,5.26
2023-02-12T01:51:01.488Z,5.38
2023-02-12T01:52:01.541Z,5.41
2023-02-12T01:53:01.474Z,5.38
2023-02-12T01:54:01.461Z,5.35
2023-02-12T01:55:01.497Z,5.47
2023-02-12T01:56:01.435Z,5.52
2023-02-12T01:57:01.506Z,5.58
2023-02-12T01:58:01.404Z,5.66
2023-02-12T01:59:01.432Z,5.62
2023-02-12T02:00:01.357Z,5.44
2023-02-12T02:01:01.376Z,5.38
2023-02-12T02:02:01.433Z,5.45
2023-02-12T02:03:01.507Z,5.45
2023-02-12T02:04:01.364Z,5.40
2023-02-12T02:05:01.359Z,5.44
2023-02-12T02:06:01.363Z,5.30
2023-02-12T02:07:01.336Z,5.40
2023-02-12T02:08:01.333Z,5.45
2023-02-12T02:09:01.319Z,5.41
2023-02-12T02:10:01.336Z,5.45
2023-02-12T02:11:01.274Z,5.49
2023-02-12T02:12:01.275Z,5.55
2023-02-12T02:13:01.320Z,5.44
2023-02-12T02:14:01.216Z,5.41
2023-02-12T02:15:01.256Z,5.48
2023-02-12T02:16:01.234Z,5.45
2023-02-12T02:17:01.203Z,5.44
2023-02-12T02:18:02.213Z,5.47
2023-02-12T02:19:01.156Z,5.65
2023-02-12T02:20:01.141Z,5.58
2023-02-12T02:21:01.125Z,5.60
2023-02-12T02:22:01.160Z,5.55
2023-02-12T02:23:01.131Z,5.40
2023-02-12T02:24:01.159Z,5.49
2023-02-12T02:25:01.134Z,5.51
2023-02-12T02:26:01.101Z,5.60
2023-02-12T02:27:01.106Z,5.65
2023-02-12T02:28:01.140Z,5.60
2023-02-12T02:29:01.125Z,5.58
2023-02-12T02:30:01.089Z,5.56
2023-02-12T02:31:01.145Z,5.38
2023-02-12T02:32:01.074Z,5.45
2023-02-12T02:33:01.038Z,5.47
2023-02-12T02:34:01.043Z,5.58
2023-02-12T02:35:01.002Z,5.58
2023-02-12T02:36:01.020Z,5.47
2023-02-12T02:37:01.427Z,5.45
2023-02-12T02:38:01.984Z,5.35
2023-02-12T02:39:00.931Z,5.48
2023-02-12T02:40:00.973Z,5.44
2023-02-12T02:41:00.954Z,5.41
2023-02-12T02:42:00.987Z,5.33
2023-02-12T02:43:01.005Z,5.45
2023-02-12T02:44:00.888Z,5.44
2023-02-12T02:45:00.966Z,5.41
2023-02-12T02:46:00.917Z,5.32
2023-02-12T02:47:00.962Z,5.30
2023-02-12T02:48:00.889Z,5.37
2023-02-12T02:49:00.870Z,5.44
2023-02-12T02:50:00.829Z,5.27
2023-02-12T02:51:00.844Z,5.32
2023-02-12T02:52:00.830Z,5.40
2023-02-12T02:53:00.837Z,5.42
2023-02-12T02:54:00.793Z,5.35
2023-02-12T02:55:00.792Z,5.30
2023-02-12T02:56:00.780Z,5.29
2023-02-12T02:57:00.788Z,5.35
2023-02-12T02:58:00.764Z,5.35
2023-02-12T02:59:00.797Z,5.35
2023-02-12T03:00:00.709Z,5.27
2023-02-12T03:01:00.727Z,5.38
2023-02-12T03:02:00.801Z,5.33
2023-02-12T03:03:00.734Z,5.29
2023-02-12T03:04:00.738Z,5.30
2023-02-12T03:05:00.681Z,5.24
2023-02-12T03:06:00.675Z,5.40
2023-02-12T03:07:00.649Z,5.23
2023-02-12T03:08:00.659Z,5.30
2023-02-12T03:09:00.655Z,5.24
2023-02-12T03:10:00.632Z,5.35
2023-02-12T03:11:00.644Z,5.24
2023-02-12T03:12:00.602Z,5.27
2023-02-12T03:13:00.582Z,5.27
2023-02-12T03:14:00.621Z,5.32
2023-02-12T03:15:00.571Z,5.32
2023-02-12T03:16:00.652Z,5.30
2023-02-12T03:17:00.588Z,5.26
2023-02-12T03:18:00.588Z,5.30
2023-02-12T03:19:00.585Z,5.23
2023-02-12T03:20:00.539Z,5.38
2023-02-12T03:21:00.496Z,5.37
2023-02-12T03:22:00.518Z,5.26
2023-02-12T03:23:00.534Z,5.20
2023-02-12T03:24:00.482Z,5.26
2023-02-12T03:25:00.513Z,5.27
2023-02-12T03:26:00.524Z,5.26
2023-02-12T03:27:01.403Z,5.29
2023-02-12T03:28:00.482Z,5.27
2023-02-12T03:29:00.523Z,5.27
2023-02-12T03:30:00.414Z,5.32
2023-02-12T03:31:00.446Z,5.20
2023-02-12T03:32:00.409Z,5.27
2023-02-12T03:33:00.396Z,5.22
2023-02-12T03:34:00.425Z,5.27
2023-02-12T03:35:00.424Z,5.20
2023-02-12T03:36:00.384Z,5.22
2023-02-12T03:37:00.380Z,5.20
2023-02-12T03:38:00.418Z,5.23
2023-02-12T03:39:00.344Z,5.20
2023-02-12T03:40:00.837Z,5.26
2023-02-12T03:41:00.294Z,5.22
2023-02-12T03:42:00.284Z,5.30
2023-02-12T03:43:00.287Z,5.30
2023-02-12T03:44:00.310Z,5.22
2023-02-12T03:45:00.252Z,5.20
2023-02-12T03:46:00.387Z,5.29
2023-02-12T03:47:00.262Z,5.19
2023-02-12T03:48:00.253Z,5.19
2023-02-12T03:49:00.241Z,5.20
2023-02-12T03:50:00.221Z,5.23
2023-02-12T03:51:00.201Z,5.17
2023-02-12T03:52:00.266Z,5.29
2023-02-12T03:53:00.188Z,5.23
2023-02-12T03:54:00.190Z,5.27
2023-02-12T03:55:00.163Z,5.15
2023-02-12T03:56:00.132Z,5.19
2023-02-12T03:57:00.169Z,5.27
2023-02-12T03:58:00.140Z,5.32
2023-02-12T03:59:00.124Z,5.26
2023-02-12T04:00:00.138Z,5.24
2023-02-12T04:01:00.137Z,5.20
2023-02-12T04:02:00.096Z,5.17
2023-02-12T04:03:00.100Z,5.19
2023-02-12T04:04:00.137Z,5.09
2023-02-12T04:05:00.101Z,5.19
2023-02-12T04:06:00.048Z,5.14
2023-02-12T04:07:00.053Z,5.23
2023-02-12T04:08:00.003Z,5.20
2023-02-12T04:09:00.019Z,5.17
2023-02-12T04:09:59.987Z,5.17
2023-02-12T04:10:59.938Z,5.19
2023-02-12T04:11:59.990Z,5.23
2023-02-12T04:12:59.928Z,5.17
2023-02-12T04:13:59.921Z,5.24
2023-02-12T04:14:59.947Z,5.22
2023-02-12T04:15:59.906Z,5.12
2023-02-12T04:17:00.100Z,5.22
2023-02-12T04:17:59.881Z,5.29
2023-02-12T04:18:59.941Z,5.22
2023-02-12T04:19:59.928Z,5.22
2023-02-12T04:20:59.908Z,5.27
2023-02-12T04:21:59.913Z,5.24
2023-02-12T04:22:59.924Z,5.27
2023-02-12T04:23:59.823Z,5.24
2023-02-12T04:24:59.882Z,5.17
2023-02-12T04:25:59.824Z,5.14
2023-02-12T04:26:59.811Z,5.24
2023-02-12T04:27:59.807Z,5.20
2023-02-12T04:28:59.798Z,5.27
2023-02-12T04:29:59.774Z,5.29
2023-02-12T04:31:00.146Z,5.24
2023-02-12T04:31:59.745Z,5.26
2023-02-12T04:32:59.750Z,5.22
2023-02-12T04:33:59.761Z,5.26
2023-02-12T04:34:59.733Z,5.33
2023-02-12T04:35:59.752Z,5.22
2023-02-12T04:37:00.725Z,5.23
2023-02-12T04:37:59.704Z,5.22
2023-02-12T04:38:59.707Z,5.23
2023-02-12T04:39:59.660Z,5.26
2023-02-12T04:40:59.672Z,5.27
2023-02-12T04:41:59.677Z,5.19
2023-02-12T04:42:59.619Z,5.20
2023-02-12T04:43:59.630Z,5.26
2023-02-12T04:44:59.624Z,5.22
2023-02-12T04:45:59.667Z,5.19
2023-02-12T04:46:59.595Z,5.22
2023-02-12T04:47:59.589Z,5.27
2023-02-12T04:48:59.553Z,5.19
2023-02-12T04:49:59.558Z,5.20
2023-02-12T04:50:59.595Z,5.24
2023-02-12T04:51:59.536Z,5.19
2023-02-12T04:52:59.573Z,5.22
2023-02-12T04:53:59.520Z,5.30
2023-02-12T04:54:59.506Z,5.23
2023-02-12T04:55:59.487Z,5.33
2023-02-12T04:56:59.504Z,5.29
2023-02-12T04:57:59.467Z,5.27
2023-02-12T04:58:59.499Z,5.26
2023-02-12T04:59:59.507Z,5.29
2023-02-12T05:00:59.521Z,5.22
2023-02-12T05:01:59.454Z,5.22
2023-02-12T05:02:59.454Z,5.24
2023-02-12T05:03:59.423Z,5.37
2023-02-12T05:04:59.470Z,5.29
2023-02-12T05:05:59.396Z,5.20
2023-02-12T05:06:59.389Z,5.33
2023-02-12T05:07:59.409Z,5.29
2023-02-12T05:08:59.418Z,5.33
2023-02-12T05:09:59.406Z,5.26
2023-02-12T05:10:59.383Z,5.32
2023-02-12T05:11:59.395Z,5.27
2023-02-12T05:12:59.314Z,5.26
2023-02-12T05:13:59.359Z,5.19
2023-02-12T05:14:59.352Z,5.20
2023-02-12T05:15:59.469Z,5.26
2023-02-12T05:16:59.292Z,5.19
2023-02-12T05:17:59.270Z,5.12
2023-02-12T05:18:59.289Z,5.17
2023-02-12T05:19:59.914Z,5.22
2023-02-12T05:20:59.273Z,5.27
2023-02-12T05:21:59.251Z,5.12
2023-02-12T05:22:59.223Z,5.20
2023-02-12T05:23:59.219Z,5.22
2023-02-12T05:24:59.254Z,5.19
2023-02-12T05:25:59.242Z,5.23
2023-02-12T05:26:59.216Z,5.22
2023-02-12T05:27:59.214Z,5.19
2023-02-12T05:28:59.201Z,5.30
2023-02-12T05:29:59.169Z,5.20
2023-02-12T05:30:59.213Z,5.14
2023-02-12T05:31:59.282Z,5.20
2023-02-12T05:32:59.129Z,5.17
2023-02-12T05:33:59.097Z,5.15
2023-02-12T05:34:59.169Z,5.20
2023-02-12T05:35:59.881Z,5.26
2023-02-12T05:36:59.081Z,5.19
2023-02-12T05:37:59.077Z,5.12
2023-02-12T05:38:59.079Z,5.20
2023-02-12T05:39:59.054Z,5.19
2023-02-12T05:40:59.062Z,5.30
2023-02-12T05:41:59.067Z,5.14
2023-02-12T05:42:58.989Z,5.11
2023-02-12T05:43:58.999Z,5.14
2023-02-12T05:44:58.993Z,5.29
2023-02-12T05:45:58.997Z,5.14
2023-02-12T05:46:58.976Z,5.09
2023-02-12T05:47:58.957Z,5.12
2023-02-12T05:48:58.937Z,5.12
2023-02-12T05:49:58.909Z,5.11
2023-02-12T05:50:58.913Z,5.11
2023-02-12T05:51:58.951Z,5.14
2023-02-12T05:52:58.891Z,5.20
2023-02-12T05:53:58.885Z,5.09
2023-02-12T05:54:58.908Z,5.09
2023-02-12T05:55:58.838Z,5.17
2023-02-12T05:56:58.843Z,5.08
2023-02-12T05:57:58.872Z,5.09
2023-02-12T05:58:58.928Z,5.11
2023-02-12T05:59:58.788Z,5.23
2023-02-12T06:00:58.821Z,5.19
2023-02-12T06:01:58.776Z,5.11
2023-02-12T06:02:58.833Z,5.17
2023-02-12T06:03:58.846Z,5.09
2023-02-12T06:04:58.776Z,5.11
2023-02-12T06:05:58.778Z,5.15
2023-02-12T06:06:58.769Z,5.15
2023-02-12T06:07:58.714Z,5.15
2023-02-12T06:08:58.760Z,5.17
2023-02-12T06:09:58.706Z,5.19
2023-02-12T06:10:58.794Z,5.22
2023-02-12T06:11:58.702Z,5.11
2023-02-12T06:12:58.696Z,5.14
2023-02-12T06:13:58.729Z,5.11
2023-02-12T06:14:58.654Z,5.12
2023-02-12T06:15:59.109Z,5.15
2023-02-12T06:16:58.647Z,5.19
2023-02-12T06:17:58.617Z,5.17
2023-02-12T06:18:58.598Z,5.09
2023-02-12T06:19:58.576Z,5.14
2023-02-12T06:20:58.614Z,5.12
2023-02-12T06:21:58.593Z,5.12
2023-02-12T06:22:58.547Z,5.04
2023-02-12T06:23:58.539Z,5.15
2023-02-12T06:24:58.535Z,5.17
2023-02-12T06:25:58.712Z,5.14
2023-02-12T06:26:58.547Z,5.12
2023-02-12T06:27:58.551Z,5.06
2023-02-12T06:28:58.491Z,5.17
2023-02-12T06:29:59.218Z,5.09
2023-02-12T06:30:58.535Z,5.12
2023-02-12T06:31:58.554Z,5.11
2023-02-12T06:32:58.519Z,5.14
2023-02-12T06:33:58.432Z,5.14
2023-02-12T06:34:58.483Z,5.08
2023-02-12T06:35:58.599Z,5.17
2023-02-12T06:36:58.469Z,5.17
2023-02-12T06:37:58.473Z,5.29
2023-02-12T06:38:58.399Z,5.19
2023-02-12T06:39:58.404Z,5.22
2023-02-12T06:40:58.359Z,5.19
2023-02-12T06:41:58.352Z,5.22
2023-02-12T06:42:58.377Z,5.26
2023-02-12T06:43:58.348Z,5.26
2023-02-12T06:44:58.318Z,5.22
2023-02-12T06:45:58.429Z,5.17
2023-02-12T06:46:58.314Z,5.17
2023-02-12T06:47:58.314Z,5.08
2023-02-12T06:48:58.315Z,5.19
2023-02-12T06:49:58.244Z,5.14
2023-02-12T06:50:58.313Z,5.17
2023-02-12T06:51:58.306Z,5.15
2023-02-12T06:52:58.241Z,5.23
2023-02-12T06:53:58.285Z,5.08
2023-02-12T06:54:58.240Z,5.23
2023-02-12T06:55:58.196Z,5.22
2023-02-12T06:56:58.195Z,5.19
2023-02-12T06:57:58.257Z,5.24
2023-02-12T06:58:58.183Z,5.12
2023-02-12T06:59:58.217Z,5.19
2023-02-12T07:00:58.216Z,5.12
2023-02-12T07:01:58.145Z,5.24
2023-02-12T07:02:58.150Z,5.23
2023-02-12T07:03:58.170Z,5.26
2023-02-12T07:04:58.125Z,5.17
2023-02-12T07:05:58.235Z,5.24
2023-02-12T07:06:58.062Z,5.17
2023-02-12T07:07:58.083Z,5.17
2023-02-12T07:08:58.139Z,5.14
2023-02-12T07:09:58.045Z,5.19
2023-02-12T07:10:58.072Z,5.27
2023-02-12T07:11:58.037Z,5.33
2023-02-12T07:12:58.040Z,5.17
2023-02-12T07:13:58.003Z,5.29
2023-02-12T07:14:58.009Z,5.20
2023-02-12T07:15:58.437Z,5.30
2023-02-12T07:16:57.983Z,5.24
2023-02-12T07:17:58.023Z,5.17
2023-02-12T07:18:57.984Z,5.24
2023-02-12T07:19:57.988Z,5.14
2023-02-12T07:21:33.104Z,5.19
2023-02-12T07:23:28.708Z,5.26
2023-02-12T07:24:29.173Z,5.23
2023-02-12T07:25:30.396Z,5.29
2023-02-12T07:27:51.608Z,5.29
2023-02-12T07:29:15.356Z,5.30
2023-02-12T07:29:17.611Z,5.29
2023-02-12T07:31:38.091Z,5.32
2023-02-12T07:31:40.879Z,5.32
2023-02-12T07:32:40.524Z,5.38
2023-02-12T07:34:44.182Z,5.27
2023-02-12T07:37:32.016Z,5.27
2023-02-12T07:40:21.874Z,5.42
2023-02-12T07:40:25.000Z,5.37
2023-02-12T07:41:23.875Z,5.35
2023-02-12T07:42:23.641Z,5.38
2023-02-12T07:43:23.701Z,5.44
2023-02-12T07:44:23.909Z,5.47
2023-02-12T07:45:23.707Z,5.44
2023-02-12T07:46:23.658Z,5.49
2023-02-12T07:47:23.664Z,5.40
2023-02-12T07:48:23.611Z,5.47
2023-02-12T07:49:23.814Z,5.47
2023-02-12T07:50:24.181Z,5.45
2023-02-12T07:51:25.289Z,5.38
2023-02-12T07:52:23.655Z,5.45
2023-02-12T07:53:24.462Z,5.44
2023-02-12T07:54:24.948Z,5.48
2023-02-12T07:55:24.424Z,5.42
2023-02-12T07:56:23.595Z,5.40
2023-02-12T07:57:23.541Z,5.37
2023-02-12T07:58:23.528Z,5.38
2023-02-12T07:59:24.044Z,5.47
2023-02-12T08:00:24.852Z,5.41
2023-02-12T08:01:24.626Z,5.49
2023-02-12T08:02:23.538Z,5.45
2023-02-12T08:03:23.478Z,5.55
2023-02-12T08:04:23.518Z,5.63
2023-02-12T08:05:23.537Z,5.66
2023-02-12T08:06:23.478Z,5.66
2023-02-12T08:07:23.428Z,5.62
2023-02-12T08:08:23.423Z,5.52
2023-02-12T08:09:24.472Z,5.67
2023-02-12T08:10:23.741Z,5.65
2023-02-12T08:11:23.382Z,5.65
2023-02-12T08:12:23.403Z,5.74
2023-02-12T08:13:23.920Z,5.81
2023-02-12T08:14:23.358Z,5.75
2023-02-12T08:15:23.313Z,5.75
2023-02-12T08:16:23.381Z,5.69
2023-02-12T08:17:23.313Z,5.60
2023-02-12T08:18:23.335Z,5.70
2023-02-12T08:19:26.361Z,5.69
2023-02-12T08:20:24.285Z,5.75
2023-02-12T08:21:23.296Z,5.67
2023-02-12T08:22:23.298Z,5.83
2023-02-12T08:23:23.270Z,5.77
2023-02-12T08:24:23.311Z,5.83
2023-02-12T08:25:25.001Z,5.74
2023-02-12T08:26:23.805Z,5.87
2023-02-12T08:27:23.356Z,5.78
2023-02-12T08:28:23.262Z,5.74
2023-02-12T08:29:23.454Z,5.84
2023-02-12T08:30:23.512Z,5.84
2023-02-12T08:31:24.645Z,5.84
2023-02-12T08:32:25.127Z,5.88
2023-02-12T08:33:23.361Z,5.88
2023-02-12T08:34:23.157Z,6.02
2023-02-12T08:35:23.097Z,5.99
2023-02-12T08:36:23.115Z,6.03
2023-02-12T08:37:23.141Z,5.96
2023-02-12T08:38:23.085Z,6.03
2023-02-12T08:39:23.105Z,6.03
2023-02-12T08:40:23.040Z,6.02
2023-02-12T08:41:25.837Z,5.99
2023-02-12T08:42:24.686Z,6.01
2023-02-12T08:43:25.231Z,5.90
2023-02-12T08:44:23.705Z,5.99
2023-02-12T08:45:23.043Z,5.87
2023-02-12T08:46:23.100Z,5.92
2023-02-12T08:47:23.855Z,5.93
2023-02-12T08:48:22.969Z,5.98
2023-02-12T08:49:22.943Z,5.96
2023-02-12T08:50:23.036Z,6.05
2023-02-12T08:51:23.180Z,6.08
2023-02-12T08:52:23.020Z,6.08
2023-02-12T08:53:23.897Z,6.16
2023-02-12T08:54:23.302Z,6.17
2023-02-12T08:55:22.885Z,6.11
2023-02-12T08:56:22.867Z,6.24
2023-02-12T08:57:24.138Z,6.25
2023-02-12T08:58:24.541Z,6.28
2023-02-12T08:59:23.463Z,6.28
2023-02-12T09:00:22.868Z,6.33
2023-02-12T09:01:24.744Z,6.35
2023-02-12T09:02:22.905Z,6.43
2023-02-12T09:03:23.508Z,6.35
2023-02-12T09:04:24.745Z,6.50
2023-02-12T09:05:24.170Z,6.64
2023-02-12T09:06:24.322Z,6.71
2023-02-12T09:07:22.802Z,6.79
2023-02-12T09:08:22.754Z,6.64
2023-02-12T09:09:22.742Z,6.68
2023-02-12T09:10:23.994Z,6.58
2023-02-12T09:11:23.720Z,6.58
2023-02-12T09:12:22.709Z,6.57
2023-02-12T09:13:22.742Z,6.65
2023-02-12T09:14:22.656Z,6.64
2023-02-12T09:15:22.712Z,6.57
2023-02-12T09:16:22.806Z,6.68
2023-02-12T09:17:22.680Z,6.69
2023-02-12T09:18:22.636Z,6.69
2023-02-12T09:19:22.788Z,6.76
2023-02-12T09:20:22.659Z,6.76
2023-02-12T09:21:22.633Z,6.76
2023-02-12T09:22:22.625Z,6.79
2023-02-12T09:23:24.541Z,6.83
2023-02-12T09:24:24.557Z,6.86
2023-02-12T09:25:25.228Z,6.87
2023-02-12T09:26:23.842Z,6.94
2023-02-12T09:27:26.035Z,7.01
2023-02-12T09:28:23.547Z,6.93
2023-02-12T09:29:23.834Z,6.90
2023-02-12T09:31:43.086Z,6.91
2023-02-12T09:31:45.163Z,7.05
2023-02-12T09:32:45.040Z,7.19
2023-02-12T09:33:47.978Z,7.16
2023-02-12T09:34:44.975Z,7.23
2023-02-12T09:35:45.194Z,7.29
2023-02-12T09:36:46.340Z,7.32
2023-02-12T09:37:44.951Z,7.23
2023-02-12T09:38:45.117Z,7.26
2023-02-12T09:39:45.165Z,7.27
2023-02-12T09:40:44.831Z,7.18
2023-02-12T09:41:45.908Z,7.24
2023-02-12T09:42:44.813Z,7.37
2023-02-12T09:43:44.529Z,7.30
2023-02-12T09:44:44.559Z,7.26
2023-02-12T09:45:44.550Z,7.26
2023-02-12T09:46:44.622Z,7.29
2023-02-12T09:47:44.516Z,7.50
2023-02-12T09:48:44.629Z,7.55
2023-02-12T09:49:44.515Z,7.82
2023-02-12T09:50:44.555Z,7.73
2023-02-12T09:51:44.758Z,7.77
2023-02-12T09:52:44.476Z,7.55
2023-02-12T09:53:44.472Z,7.37
2023-02-12T09:54:45.614Z,7.44
2023-02-12T09:55:45.916Z,7.29
2023-02-12T09:56:44.561Z,7.52
2023-02-12T09:57:44.931Z,7.57
2023-02-12T09:58:44.702Z,7.57
2023-02-12T09:59:44.556Z,7.58
2023-02-12T10:00:44.407Z,7.55
2023-02-12T10:01:44.584Z,7.57
2023-02-12T10:02:44.387Z,7.62
2023-02-12T10:03:44.377Z,7.47
2023-02-12T10:04:59.698Z,7.21
2023-02-12T10:05:46.706Z,7.14
2023-02-12T10:06:44.325Z,7.19
2023-02-12T10:07:44.907Z,7.23
2023-02-12T10:08:44.336Z,7.29
2023-02-12T10:09:44.481Z,7.32
2023-02-12T10:10:44.912Z,7.48
2023-02-12T10:11:45.714Z,7.30
2023-02-12T10:12:45.125Z,7.45
2023-02-12T10:13:44.346Z,7.39
2023-02-12T10:14:44.242Z,7.39
2023-02-12T10:15:45.036Z,7.54
2023-02-12T10:16:44.448Z,7.62
2023-02-12T10:17:44.314Z,7.67
2023-02-12T10:18:44.330Z,7.60
2023-02-12T10:19:44.354Z,7.71
2023-02-12T10:20:44.217Z,7.70
2023-02-12T10:21:44.399Z,7.60
2023-02-12T10:22:56.124Z,7.54
2023-02-12T10:23:46.186Z,7.52
2023-02-12T10:24:44.159Z,7.42
2023-02-12T10:25:44.185Z,7.50
2023-02-12T10:26:44.088Z,7.42
2023-02-12T10:27:44.148Z,7.51
2023-02-12T10:28:44.799Z,7.52
2023-02-12T10:29:44.335Z,7.60
2023-02-12T10:30:44.623Z,7.69
2023-02-12T10:31:45.338Z,7.60
2023-02-12T10:32:44.438Z,7.66
2023-02-12T10:35:04.860Z,7.70
2023-02-12T10:35:06.473Z,7.48
2023-02-12T10:36:06.524Z,7.54
2023-02-12T10:37:06.313Z,7.44
2023-02-12T10:38:06.416Z,7.55
2023-02-12T10:39:06.299Z,7.47
2023-02-12T10:40:06.322Z,7.54
2023-02-12T10:41:06.309Z,7.52
2023-02-12T10:42:06.457Z,7.70
2023-02-12T10:43:06.293Z,7.52
2023-02-12T10:44:06.772Z,7.67
2023-02-12T10:45:06.290Z,7.71
2023-02-12T10:46:06.226Z,7.57
2023-02-12T10:47:06.187Z,7.52
2023-02-12T10:48:08.360Z,7.51
2023-02-12T10:49:10.069Z,7.57
2023-02-12T10:50:09.570Z,7.54
2023-02-12T10:51:09.408Z,7.51
2023-02-12T10:52:09.488Z,7.50
2023-02-12T10:53:10.417Z,7.54
2023-02-12T10:54:08.531Z,7.57
2023-02-12T10:55:09.765Z,7.51
2023-02-12T10:56:11.425Z,7.52
2023-02-12T10:57:07.531Z,7.45
2023-02-12T10:58:09.760Z,7.52
2023-02-12T10:59:06.644Z,7.58
2023-02-12T11:00:09.147Z,7.57
2023-02-12T11:01:10.599Z,7.57
2023-02-12T11:02:07.701Z,7.55
2023-02-12T11:03:06.124Z,7.63
2023-02-12T11:04:06.385Z,7.55
2023-02-12T11:05:06.314Z,7.54
2023-02-12T11:06:06.165Z,7.42
2023-02-12T11:07:08.976Z,7.48
2023-02-12T11:08:08.088Z,7.52
2023-02-12T11:09:11.160Z,7.48
2023-02-12T11:10:09.865Z,7.34
2023-02-12T11:11:09.904Z,7.37
2023-02-12T11:12:09.086Z,7.44
2023-02-12T11:13:08.928Z,7.30
2023-02-12T11:14:09.038Z,7.37
2023-02-12T11:15:11.347Z,7.33
2023-02-12T11:16:08.812Z,7.29
2023-02-12T11:17:09.434Z,7.36
2023-02-12T11:18:10.549Z,7.34
2023-02-12T11:20:26.739Z,7.36
2023-02-12T11:20:28.630Z,7.41
2023-02-12T11:21:28.627Z,7.42
2023-02-12T11:22:28.718Z,7.37
2023-02-12T11:23:28.490Z,7.42
2023-02-12T11:25:49.746Z,7.37
2023-02-12T11:25:51.549Z,7.32
2023-02-12T11:26:51.522Z,7.39
2023-02-12T11:27:51.467Z,7.34
2023-02-12T11:28:51.729Z,7.33
2023-02-12T11:29:52.035Z,7.36
2023-02-12T11:30:52.242Z,7.27
2023-02-12T11:31:51.666Z,7.29
2023-02-12T11:32:51.575Z,7.29
2023-02-12T11:33:51.351Z,7.33
2023-02-12T11:34:51.675Z,7.36
2023-02-12T11:35:51.295Z,7.27
2023-02-12T11:36:51.131Z,7.37
2023-02-12T11:37:51.676Z,7.39
2023-02-12T11:38:51.699Z,7.26
2023-02-12T11:39:51.468Z,7.27
2023-02-12T11:40:51.190Z,7.36
2023-02-12T11:41:51.313Z,7.44
2023-02-12T11:42:51.420Z,7.37
2023-02-12T11:43:52.106Z,7.41
2023-02-12T11:44:51.455Z,7.32
2023-02-12T11:45:51.627Z,7.41
2023-02-12T11:46:51.489Z,7.45
2023-02-12T11:47:51.401Z,7.41
2023-02-12T11:48:51.742Z,7.33
2023-02-12T11:49:51.650Z,7.36
2023-02-12T11:50:51.168Z,7.34
2023-02-12T11:51:51.380Z,7.29
2023-02-12T11:52:51.267Z,7.24
2023-02-12T11:53:53.418Z,7.34
2023-02-12T11:54:51.319Z,7.30
2023-02-12T11:55:51.158Z,7.34
2023-02-12T11:56:51.304Z,7.39
2023-02-12T11:57:51.137Z,7.37
2023-02-12T11:58:51.192Z,7.45
2023-02-12T11:59:51.059Z,7.47
2023-02-12T12:00:51.226Z,7.45
2023-02-12T12:01:51.286Z,7.39
2023-02-12T12:02:51.222Z,7.41
2023-02-12T12:03:51.193Z,7.30
2023-02-12T12:04:51.854Z,7.42
2023-02-12T12:05:50.996Z,7.34
2023-02-12T12:06:51.153Z,7.36
2023-02-12T12:07:51.189Z,7.34
2023-02-12T12:08:51.044Z,7.42
2023-02-12T12:09:51.130Z,7.44
2023-02-12T12:10:51.235Z,7.34
2023-02-12T12:11:51.518Z,7.37
2023-02-12T12:12:50.960Z,7.41
2023-02-12T12:13:51.180Z,7.42
2023-02-12T12:14:51.226Z,7.32
2023-02-12T12:15:51.064Z,7.30
2023-02-12T12:16:50.924Z,7.30
2023-02-12T12:17:50.938Z,7.29
2023-02-12T12:18:50.976Z,7.30
2023-02-12T12:19:51.304Z,7.37
2023-02-12T12:20:51.334Z,7.37
2023-02-12T12:21:52.071Z,7.48
2023-02-12T12:22:51.781Z,7.44
2023-02-12T12:23:51.211Z,7.44
2023-02-12T12:24:51.143Z,7.39
2023-02-12T12:25:51.015Z,7.52
2023-02-12T12:26:50.955Z,7.37
2023-02-12T12:27:50.935Z,7.52
2023-02-12T12:28:50.701Z,7.48
2023-02-12T12:29:50.662Z,7.48
2023-02-12T12:30:51.076Z,7.48
2023-02-12T12:31:50.918Z,7.51
2023-02-12T12:32:51.863Z,7.51
2023-02-12T12:33:50.706Z,7.57
2023-02-12T12:34:50.902Z,7.51
2023-02-12T12:35:50.896Z,7.54
2023-02-12T12:36:51.878Z,7.51
2023-02-12T12:37:51.726Z,7.57
2023-02-12T12:38:51.034Z,7.51
2023-02-12T12:39:51.171Z,7.57
2023-02-12T12:40:50.931Z,7.51
2023-02-12T12:41:50.945Z,7.67
2023-02-12T12:42:51.245Z,7.55
2023-02-12T12:43:50.767Z,7.45
2023-02-12T12:44:50.368Z,7.47
2023-02-12T12:45:50.500Z,7.48
2023-02-12T12:46:50.416Z,7.51
2023-02-12T12:47:50.367Z,7.47
2023-02-12T12:48:50.374Z,7.47
2023-02-12T12:49:50.342Z,7.44
2023-02-12T12:50:50.326Z,7.48
2023-02-12T12:51:50.277Z,7.47
2023-02-12T12:52:50.325Z,7.41
2023-02-12T12:53:50.281Z,7.51
2023-02-12T12:54:50.273Z,7.55
2023-02-12T12:55:50.317Z,7.52
2023-02-12T12:56:50.270Z,7.51
2023-02-12T12:57:50.241Z,7.55
2023-02-12T12:58:50.208Z,7.55
2023-02-12T12:59:50.256Z,7.60
2023-02-12T13:00:50.282Z,7.73
2023-02-12T13:01:50.316Z,7.82
2023-02-12T13:02:50.234Z,7.77
2023-02-12T13:03:50.187Z,7.85
2023-02-12T13:04:50.164Z,7.92
2023-02-12T13:05:50.579Z,7.85
2023-02-12T13:06:50.966Z,7.79
2023-02-12T13:07:50.811Z,7.84
2023-02-12T13:08:50.559Z,7.82
2023-02-12T13:09:50.417Z,7.79
2023-02-12T13:10:50.567Z,7.82
2023-02-12T13:11:50.468Z,7.70
2023-02-12T13:12:50.472Z,7.74
2023-02-12T13:13:51.541Z,7.84
2023-02-12T13:14:50.501Z,7.84
2023-02-12T13:15:50.240Z,7.81
2023-02-12T13:16:50.494Z,7.81
2023-02-12T13:17:50.504Z,7.92
2023-02-12T13:18:50.398Z,8.00
2023-02-12T13:19:50.355Z,8.04
2023-02-12T13:20:50.808Z,7.92
2023-02-12T13:21:50.450Z,7.91
2023-02-12T13:22:50.617Z,7.91
2023-02-12T13:23:50.385Z,7.89
2023-02-12T13:24:50.987Z,7.89
2023-02-12T13:25:50.568Z,7.94